KELM/ELM METAR and TAF weather

Enter ICAO airport designator
Station Type Date Time Source
KELM METAR 2021/04/17 01:53 UTC NOAA

KELM 170153Z 30007KT 10SM OVC019 06/03 A2978 RMK AO2 SLP091 T00560033


Station Type Date Time Source
KELM Decoded METAR 2021/04/17 01:53 UTC NOAA

ELMIRA COUNTY AIRPORT, NY, United States (KELM) 42-10N 76-54W 302M
Apr 16, 2021 - 09:53 PM EDT / 2021.04.17 0153 UTC
Wind: from the WNW (300 degrees) at 8 MPH (7 KT):0
Visibility: 10 mile(s):0
Sky conditions: overcast
Temperature: 42.1 F (5.6 C)
Dew Point: 37.9 F (3.3 C)
Relative Humidity: 85%
Pressure (altimeter): 29.78 in. Hg (1008 hPa)
ob: KELM 170153Z 30007KT 10SM OVC019 06/03 A2978 RMK AO2 SLP091 T00560033
cycle: 2

Station Type Date Time Source
KELM TAF 2021/04/16 23:42 UTC NOAA

TAF
AMD KELM 162240Z 1623/1718 30007KT 6SM -RA BR SCT018 BKN026
FM170400 31008KT P6SM VCSH OVC012
FM171400 33006KT P6SM SCT015 OVC025

Example: see airport list